createdAt,value
2018-12-10T00:01:56.649Z,5.80
2018-12-10T00:04:30.962Z,5.70
2018-12-10T00:07:05.361Z,5.80
2018-12-10T00:09:39.640Z,5.70
2018-12-10T00:12:13.957Z,5.70
2018-12-10T00:14:48.112Z,5.70
2018-12-10T00:17:22.576Z,5.70
2018-12-10T00:19:56.845Z,5.70
2018-12-10T00:22:31.128Z,5.70
2018-12-10T00:25:05.680Z,5.60
2018-12-10T00:27:39.890Z,5.70
2018-12-10T00:30:14.392Z,5.70
2018-12-10T00:32:48.524Z,5.60
2018-12-10T00:35:22.737Z,5.70
2018-12-10T00:37:56.989Z,5.60
2018-12-10T00:40:31.347Z,5.70
2018-12-10T00:43:05.596Z,5.70
2018-12-10T00:45:40.114Z,5.70
2018-12-10T00:48:14.344Z,5.80
2018-12-10T00:50:48.717Z,5.80
2018-12-10T00:53:23.054Z,5.80
2018-12-10T00:55:57.572Z,5.70
2018-12-10T00:58:32.048Z,5.70
2018-12-10T01:01:06.540Z,5.70
2018-12-10T01:03:40.776Z,5.70
2018-12-10T01:06:15.309Z,5.70
2018-12-10T01:08:49.540Z,5.60
2018-12-10T01:11:23.716Z,5.60
2018-12-10T01:13:58.156Z,5.50
2018-12-10T01:16:32.592Z,5.60
2018-12-10T01:19:06.821Z,5.60
2018-12-10T01:21:41.364Z,5.50
2018-12-10T01:24:15.668Z,5.50
2018-12-10T01:26:50.116Z,5.50
2018-12-10T01:29:24.276Z,5.60
2018-12-10T01:31:58.661Z,5.60
2018-12-10T01:34:33.077Z,5.50
2018-12-10T01:37:07.325Z,5.50
2018-12-10T01:39:41.598Z,5.50
2018-12-10T01:42:15.897Z,5.50
2018-12-10T01:44:50.156Z,5.50
2018-12-10T01:47:24.535Z,5.50
2018-12-10T01:49:58.804Z,5.50
2018-12-10T01:52:33.099Z,5.40
2018-12-10T01:55:07.460Z,5.40
2018-12-10T01:57:41.904Z,5.40
2018-12-10T02:00:16.336Z,5.40
2018-12-10T02:02:50.692Z,5.40
2018-12-10T02:05:25.169Z,5.40
2018-12-10T02:07:59.608Z,5.40
2018-12-10T02:10:33.936Z,5.50
2018-12-10T02:13:08.242Z,5.50
2018-12-10T02:15:42.544Z,5.40
2018-12-10T02:18:16.900Z,5.40
2018-12-10T02:20:51.144Z,5.40
2018-12-10T02:23:25.456Z,5.40
2018-12-10T02:25:59.701Z,5.30
2018-12-10T02:28:39.596Z,5.30
2018-12-10T02:31:14.069Z,5.30
2018-12-10T02:33:48.445Z,5.40
2018-12-10T02:36:22.593Z,5.30
2018-12-10T02:38:56.925Z,5.30
2018-12-10T02:41:31.230Z,5.30
2018-12-10T02:44:05.525Z,5.30
2018-12-10T02:46:39.860Z,5.30
2018-12-10T02:49:14.140Z,5.30
2018-12-10T02:51:48.441Z,5.40
2018-12-10T02:54:22.953Z,5.40
2018-12-10T02:56:57.272Z,5.30
2018-12-10T02:59:31.656Z,5.30
2018-12-10T03:02:05.842Z,5.30
2018-12-10T03:04:40.248Z,5.30
2018-12-10T03:07:14.728Z,5.30
2018-12-10T03:09:49.119Z,5.30
2018-12-10T03:12:23.413Z,5.30
2018-12-10T03:14:57.714Z,5.30
2018-12-10T03:17:31.914Z,5.30
2018-12-10T03:20:06.354Z,5.30
2018-12-10T03:22:40.575Z,5.40
2018-12-10T03:25:14.911Z,5.30
2018-12-10T03:27:49.303Z,5.30
2018-12-10T03:30:23.733Z,5.30
2018-12-10T03:32:58.020Z,5.30
2018-12-10T03:35:32.372Z,5.30
2018-12-10T03:38:06.931Z,5.20
2018-12-10T03:40:41.218Z,5.10
2018-12-10T03:43:15.587Z,5.20
2018-12-10T03:45:49.925Z,5.10
2018-12-10T03:48:24.209Z,5.10
2018-12-10T03:50:58.719Z,5.10
2018-12-10T03:53:33.152Z,5.20
2018-12-10T03:56:07.616Z,5.10
2018-12-10T03:58:41.961Z,5.10
2018-12-10T04:01:16.444Z,5.10
2018-12-10T04:03:50.736Z,5.10
2018-12-10T04:06:25.120Z,5.00
2018-12-10T04:08:59.338Z,5.00
2018-12-10T04:11:33.764Z,5.00
2018-12-10T04:14:07.992Z,5.00
2018-12-10T04:16:42.553Z,5.00
2018-12-10T04:19:16.720Z,5.00
2018-12-10T04:21:50.964Z,5.00
2018-12-10T04:24:25.162Z,4.90
2018-12-10T04:26:59.592Z,4.90
2018-12-10T04:29:33.965Z,5.00
2018-12-10T04:32:08.347Z,4.90
2018-12-10T04:34:42.620Z,4.90
2018-12-10T04:37:16.948Z,4.80
2018-12-10T04:39:51.139Z,4.90
2018-12-10T04:42:25.289Z,4.90
2018-12-10T04:44:59.556Z,4.90
2018-12-10T04:47:33.810Z,4.80
2018-12-10T04:50:08.444Z,4.70
2018-12-10T04:52:42.606Z,4.80
2018-12-10T04:55:16.917Z,4.80
2018-12-10T04:57:51.277Z,4.80
2018-12-10T05:00:25.524Z,4.80
2018-12-10T05:02:59.729Z,4.80
2018-12-10T05:05:34.032Z,4.70
2018-12-10T05:08:08.245Z,4.70
2018-12-10T05:10:42.538Z,4.70
2018-12-10T05:13:16.786Z,4.70
2018-12-10T05:15:51.221Z,4.80
2018-12-10T05:18:25.432Z,4.80
2018-12-10T05:20:59.609Z,4.70
2018-12-10T05:23:34.019Z,4.70
2018-12-10T05:26:08.391Z,4.70
2018-12-10T05:28:42.745Z,4.80
2018-12-10T05:31:17.067Z,4.80
2018-12-10T05:33:51.313Z,4.80
2018-12-10T05:36:25.660Z,4.80
2018-12-10T05:38:59.829Z,4.80
2018-12-10T05:41:34.193Z,4.80
2018-12-10T05:44:08.600Z,4.90
2018-12-10T05:46:42.816Z,4.90
2018-12-10T05:49:17.136Z,4.90
2018-12-10T05:51:51.453Z,4.90
2018-12-10T05:54:25.853Z,4.90
2018-12-10T05:57:00.062Z,4.90
2018-12-10T05:59:34.536Z,5.00
2018-12-10T06:02:08.674Z,4.90
2018-12-10T06:04:43.125Z,5.00
2018-12-10T06:07:17.528Z,4.90
2018-12-10T06:09:51.906Z,4.80
2018-12-10T06:12:26.197Z,4.70
2018-12-10T06:15:00.531Z,4.80
2018-12-10T06:17:34.924Z,4.80
2018-12-10T06:20:09.277Z,4.70
2018-12-10T06:22:43.668Z,4.70
2018-12-10T06:25:17.822Z,4.80
2018-12-10T06:27:52.201Z,4.80
2018-12-10T06:30:26.611Z,4.80
2018-12-10T06:33:00.852Z,4.80
2018-12-10T06:35:35.316Z,4.80
2018-12-10T06:38:09.775Z,4.80
2018-12-10T06:40:44.305Z,4.80
2018-12-10T06:43:18.525Z,4.70
2018-12-10T06:45:52.835Z,4.60
2018-12-10T06:48:27.145Z,4.70
2018-12-10T06:51:01.301Z,4.70
2018-12-10T06:53:35.786Z,4.70
2018-12-10T06:56:10.207Z,4.70
2018-12-10T06:58:44.567Z,4.70
2018-12-10T07:01:18.883Z,4.80
2018-12-10T07:03:54.819Z,4.80
2018-12-10T07:06:29.488Z,4.80
2018-12-10T07:09:05.217Z,4.80
2018-12-10T07:11:39.411Z,4.80
2018-12-10T07:14:13.816Z,4.70
2018-12-10T07:16:48.228Z,4.70
2018-12-10T07:19:22.508Z,4.70
2018-12-10T07:21:56.876Z,4.80
2018-12-10T07:24:31.179Z,4.80
2018-12-10T07:27:05.548Z,4.70
2018-12-10T07:29:39.857Z,4.70
2018-12-10T07:32:14.020Z,4.60
2018-12-10T07:34:48.337Z,4.60
2018-12-10T07:37:22.620Z,4.60
2018-12-10T07:39:56.816Z,4.60
2018-12-10T07:42:31.132Z,4.60
2018-12-10T07:45:06.059Z,4.60
2018-12-10T07:47:40.298Z,4.70
2018-12-10T07:50:14.636Z,4.60
2018-12-10T07:52:48.962Z,4.60
2018-12-10T07:55:23.341Z,4.60
2018-12-10T07:57:57.541Z,4.60
2018-12-10T08:00:31.955Z,4.60
2018-12-10T08:03:06.222Z,4.60
2018-12-10T08:05:40.581Z,4.70
2018-12-10T08:08:14.980Z,4.60
2018-12-10T08:10:49.528Z,4.60
2018-12-10T08:13:23.904Z,4.60
2018-12-10T08:15:58.272Z,4.50
2018-12-10T08:18:32.444Z,4.60
2018-12-10T08:21:06.808Z,4.60
2018-12-10T08:23:41.257Z,4.60
2018-12-10T08:26:15.544Z,4.60
2018-12-10T08:28:49.860Z,4.70
2018-12-10T08:31:24.069Z,4.70
2018-12-10T08:33:58.495Z,4.80
2018-12-10T08:36:32.926Z,4.70
2018-12-10T08:39:07.732Z,4.70
2018-12-10T08:41:41.911Z,4.70
2018-12-10T08:44:16.328Z,4.70
2018-12-10T08:46:50.621Z,4.80
2018-12-10T08:49:24.948Z,4.80
2018-12-10T08:51:59.365Z,4.80
2018-12-10T08:54:33.765Z,4.80
2018-12-10T08:57:08.146Z,4.80
2018-12-10T08:59:42.450Z,4.80
2018-12-10T09:02:16.897Z,4.80
2018-12-10T09:04:51.383Z,4.80
2018-12-10T09:07:25.707Z,4.80
2018-12-10T09:09:59.997Z,4.90
2018-12-10T09:12:34.301Z,4.90
2018-12-10T09:15:08.667Z,5.00
2018-12-10T09:17:43.084Z,5.00
2018-12-10T09:20:17.350Z,5.10
2018-12-10T09:22:51.592Z,5.20
2018-12-10T09:25:26.381Z,5.20
2018-12-10T09:28:00.794Z,5.20
2018-12-10T09:30:35.187Z,5.20
2018-12-10T09:33:09.536Z,5.20
2018-12-10T09:35:43.944Z,5.20
2018-12-10T09:38:18.298Z,5.30
2018-12-10T09:40:52.608Z,5.20
2018-12-10T09:43:26.828Z,5.20
2018-12-10T09:46:01.148Z,5.20
2018-12-10T09:48:35.453Z,5.10
2018-12-10T09:51:09.828Z,5.10
2018-12-10T09:53:44.093Z,5.20
2018-12-10T09:56:18.577Z,5.20
2018-12-10T09:58:52.780Z,5.30
2018-12-10T10:01:27.384Z,5.30
2018-12-10T10:04:01.858Z,5.30
2018-12-10T10:06:36.244Z,5.40
2018-12-10T10:09:10.535Z,5.30
2018-12-10T10:11:44.865Z,5.30
2018-12-10T10:14:19.181Z,5.30
2018-12-10T10:16:53.661Z,5.40
2018-12-10T10:19:28.041Z,5.50
2018-12-10T10:22:02.556Z,5.50
2018-12-10T10:24:36.821Z,5.50
2018-12-10T10:27:11.193Z,5.50
2018-12-10T10:29:45.481Z,5.50
2018-12-10T10:32:19.800Z,5.50
2018-12-10T10:34:54.176Z,5.50
2018-12-10T10:37:28.624Z,5.40
2018-12-10T10:40:04.600Z,5.30
2018-12-10T10:42:39.341Z,5.20
2018-12-10T10:45:13.961Z,5.40
2018-12-10T10:47:48.207Z,5.30
2018-12-10T10:50:22.581Z,5.30
2018-12-10T10:52:56.893Z,5.30
2018-12-10T10:55:31.142Z,5.40
2018-12-10T10:58:05.524Z,5.50
2018-12-10T11:00:45.305Z,5.50
2018-12-10T11:03:24.932Z,5.40
2018-12-10T11:05:59.288Z,5.50
2018-12-10T11:08:33.638Z,5.50
2018-12-10T11:11:07.916Z,5.50
2018-12-10T11:13:42.363Z,5.60
2018-12-10T11:16:16.744Z,5.60
2018-12-10T11:18:51.177Z,5.70
2018-12-10T11:21:25.455Z,5.70
2018-12-10T11:23:59.740Z,5.70
2018-12-10T11:26:34.213Z,5.80
2018-12-10T11:29:08.524Z,5.80
2018-12-10T11:31:42.876Z,5.80
2018-12-10T11:34:17.293Z,5.90
2018-12-10T11:36:51.549Z,5.80
2018-12-10T11:39:25.729Z,5.90
2018-12-10T11:42:00.077Z,6.00
2018-12-10T11:44:34.392Z,6.00
2018-12-10T11:47:13.085Z,6.00
2018-12-10T11:49:45.097Z,6.10
2018-12-10T11:52:19.351Z,6.20
2018-12-10T11:54:53.567Z,6.10
2018-12-10T11:57:27.720Z,6.10
2018-12-10T12:00:02.060Z,6.10
2018-12-10T12:02:36.349Z,6.10
2018-12-10T12:05:10.760Z,6.00
2018-12-10T12:07:45.141Z,6.00
2018-12-10T12:10:19.487Z,6.00
2018-12-10T12:12:53.934Z,6.00
2018-12-10T12:15:28.515Z,5.90
2018-12-10T12:18:03.041Z,6.00
2018-12-10T12:20:37.352Z,6.00
2018-12-10T12:23:11.659Z,5.90
2018-12-10T12:25:45.844Z,6.00
2018-12-10T12:28:20.029Z,6.00
2018-12-10T12:30:54.256Z,6.00
2018-12-10T12:33:28.707Z,6.00
2018-12-10T12:36:03.104Z,5.90
2018-12-10T12:38:37.400Z,6.00
2018-12-10T12:41:11.723Z,6.00
2018-12-10T12:43:46.048Z,6.00
2018-12-10T12:46:20.373Z,6.10
2018-12-10T12:48:54.678Z,6.10
2018-12-10T12:51:28.982Z,6.20
2018-12-10T12:54:03.463Z,6.10
2018-12-10T12:56:37.787Z,6.10
2018-12-10T12:59:12.029Z,6.10
2018-12-10T13:01:49.451Z,6.00
2018-12-10T13:04:22.750Z,6.10
2018-12-10T13:06:56.968Z,6.10
2018-12-10T13:09:31.500Z,6.20
2018-12-10T13:12:05.944Z,6.20
2018-12-10T13:14:40.269Z,6.20
2018-12-10T13:17:14.572Z,6.20
2018-12-10T13:19:48.848Z,6.20
2018-12-10T13:22:23.173Z,6.20
2018-12-10T13:24:57.819Z,6.20
2018-12-10T13:27:32.202Z,6.10
2018-12-10T13:30:06.581Z,6.20
2018-12-10T13:32:40.789Z,6.30
2018-12-10T13:35:15.229Z,6.30
2018-12-10T13:37:49.492Z,6.30
2018-12-10T13:40:23.735Z,6.20
2018-12-10T13:42:58.049Z,6.30
2018-12-10T13:45:32.372Z,6.30
2018-12-10T13:48:06.888Z,6.40
2018-12-10T13:50:41.353Z,6.30
2018-12-10T13:53:15.774Z,6.30
2018-12-10T13:55:50.150Z,6.40
2018-12-10T13:58:24.369Z,6.30
2018-12-10T14:00:58.668Z,6.40
2018-12-10T14:03:32.884Z,6.30
2018-12-10T14:06:07.180Z,6.20
2018-12-10T14:08:41.533Z,6.30
2018-12-10T14:11:15.985Z,6.20
2018-12-10T14:13:50.486Z,6.20
2018-12-10T14:16:25.015Z,6.20
2018-12-10T14:18:59.532Z,6.10
2018-12-10T14:21:33.752Z,6.20
2018-12-10T14:24:08.256Z,6.10
2018-12-10T14:26:42.630Z,6.10
2018-12-10T14:29:17.386Z,6.10
2018-12-10T14:31:51.716Z,6.10
2018-12-10T14:34:27.094Z,6.00
2018-12-10T14:37:01.400Z,6.00
2018-12-10T14:39:35.876Z,5.90
2018-12-10T14:42:20.419Z,5.90
2018-12-10T14:44:54.541Z,5.90
2018-12-10T14:47:29.024Z,5.80
2018-12-10T14:50:03.444Z,5.80
2018-12-10T14:52:37.820Z,5.80
2018-12-10T14:55:12.219Z,5.80
2018-12-10T14:57:46.484Z,5.80
2018-12-10T15:00:20.756Z,5.80
2018-12-10T15:02:54.972Z,5.80
2018-12-10T15:05:29.348Z,5.80
2018-12-10T15:08:03.836Z,5.70
2018-12-10T15:10:38.080Z,5.70
2018-12-10T15:13:12.468Z,5.70
2018-12-10T15:15:46.808Z,5.70
2018-12-10T15:18:21.100Z,5.60
2018-12-10T15:20:55.469Z,5.60
2018-12-10T15:23:29.682Z,5.60
2018-12-10T15:26:04.007Z,5.60
2018-12-10T15:28:38.323Z,5.60
2018-12-10T15:31:12.680Z,5.50
2018-12-10T15:33:47.152Z,5.50
2018-12-10T15:36:21.413Z,5.40
2018-12-10T15:38:55.585Z,5.50
2018-12-10T15:41:29.776Z,5.50
2018-12-10T15:44:04.133Z,5.50
2018-12-10T15:46:38.465Z,5.40
2018-12-10T15:49:12.897Z,5.50
2018-12-10T15:51:47.468Z,5.50
2018-12-10T15:54:21.807Z,5.50
2018-12-10T15:56:56.106Z,5.50
2018-12-10T15:59:30.536Z,5.50
2018-12-10T16:02:05.199Z,5.60
2018-12-10T16:04:39.649Z,5.50
2018-12-10T16:07:15.278Z,5.50
2018-12-10T16:09:49.471Z,5.50
2018-12-10T16:12:24.907Z,5.50
2018-12-10T16:14:59.272Z,5.50
2018-12-10T16:17:33.597Z,5.50
2018-12-10T16:20:09.424Z,5.50
2018-12-10T16:22:43.761Z,5.30
2018-12-10T16:25:18.021Z,5.20
2018-12-10T16:27:52.304Z,5.10
2018-12-10T16:30:27.224Z,5.20
2018-12-10T16:33:02.039Z,5.10
2018-12-10T16:35:36.688Z,5.10
2018-12-10T16:38:11.053Z,5.10
2018-12-10T16:40:45.557Z,5.10
2018-12-10T16:43:20.063Z,5.10
2018-12-10T16:45:54.345Z,5.20
2018-12-10T16:48:28.639Z,5.20
2018-12-10T16:51:02.920Z,5.10
2018-12-10T16:53:37.306Z,5.10
2018-12-10T16:56:11.757Z,5.20
2018-12-10T16:58:46.099Z,5.10
2018-12-10T17:01:20.472Z,5.10
2018-12-10T17:03:54.901Z,5.10
2018-12-10T17:06:29.256Z,4.90
2018-12-10T17:09:05.810Z,5.00
2018-12-10T17:11:40.308Z,5.00
2018-12-10T17:14:15.248Z,4.90
2018-12-10T17:16:49.547Z,5.00
2018-12-10T17:19:24.108Z,4.90
2018-12-10T17:21:58.528Z,4.90
2018-12-10T17:24:32.694Z,4.80
2018-12-10T17:27:07.080Z,4.90
2018-12-10T17:29:41.517Z,4.80
2018-12-10T17:32:15.884Z,4.90
2018-12-10T17:34:50.184Z,4.90
2018-12-10T17:37:24.583Z,4.90
2018-12-10T17:39:58.884Z,4.90
2018-12-10T17:42:33.144Z,4.90
2018-12-10T17:45:08.628Z,4.90
2018-12-10T17:47:43.112Z,5.00
2018-12-10T17:50:17.516Z,4.90
2018-12-10T17:52:51.778Z,4.90
2018-12-10T17:55:26.177Z,4.90
2018-12-10T17:58:00.412Z,4.90
2018-12-10T18:00:34.769Z,4.90
2018-12-10T18:03:09.153Z,4.90
2018-12-10T18:05:43.521Z,4.90
2018-12-10T18:08:17.849Z,4.90
2018-12-10T18:10:52.256Z,4.90
2018-12-10T18:13:26.691Z,4.90
2018-12-10T18:16:01.116Z,4.90
2018-12-10T18:18:35.390Z,4.90
2018-12-10T18:21:09.748Z,4.90
2018-12-10T18:23:44.019Z,4.90
2018-12-10T18:26:18.370Z,4.90
2018-12-10T18:28:52.633Z,4.90
2018-12-10T18:31:26.909Z,4.90
2018-12-10T18:34:01.393Z,4.90
2018-12-10T18:36:35.736Z,4.90
2018-12-10T18:39:10.256Z,4.90
2018-12-10T18:41:44.516Z,4.90
2018-12-10T18:44:18.789Z,4.90
2018-12-10T18:46:53.289Z,4.80
2018-12-10T18:49:27.519Z,4.90
2018-12-10T18:52:01.813Z,4.90
2018-12-10T18:54:35.999Z,4.90
2018-12-10T18:57:10.476Z,4.90
2018-12-10T18:59:45.233Z,4.80
2018-12-10T19:02:19.421Z,4.90
2018-12-10T19:04:53.961Z,4.90
2018-12-10T19:07:28.413Z,4.90
2018-12-10T19:10:03.307Z,5.00
2018-12-10T19:12:38.120Z,4.90
2018-12-10T19:15:12.436Z,4.90
2018-12-10T19:17:46.888Z,5.00
2018-12-10T19:20:21.160Z,5.00
2018-12-10T19:22:55.420Z,5.00
2018-12-10T19:25:29.821Z,5.00
2018-12-10T19:28:04.255Z,5.00
2018-12-10T19:30:38.527Z,4.90
2018-12-10T19:33:12.752Z,4.90
2018-12-10T19:35:47.189Z,5.00
2018-12-10T19:38:21.446Z,5.00
2018-12-10T19:40:55.950Z,5.00
2018-12-10T19:43:30.139Z,5.00
2018-12-10T19:46:04.357Z,5.10
2018-12-10T19:48:38.811Z,5.20
2018-12-10T19:51:13.065Z,5.20
2018-12-10T19:53:47.523Z,5.20
2018-12-10T19:56:21.747Z,5.20
2018-12-10T19:58:56.180Z,5.20
2018-12-10T20:01:30.625Z,5.20
2018-12-10T20:04:04.948Z,5.20
2018-12-10T20:06:44.979Z,5.20
2018-12-10T20:09:19.181Z,5.20
2018-12-10T20:11:55.472Z,5.20
2018-12-10T20:14:29.819Z,5.20
2018-12-10T20:17:04.338Z,5.20
2018-12-10T20:19:38.625Z,5.20
2018-12-10T20:22:12.903Z,5.20
2018-12-10T20:24:47.061Z,5.10
2018-12-10T20:27:22.265Z,5.20
2018-12-10T20:29:56.670Z,5.10
2018-12-10T20:32:31.009Z,5.10
2018-12-10T20:35:05.913Z,5.10
2018-12-10T20:37:40.533Z,4.60
2018-12-10T20:40:15.007Z,5.20
2018-12-10T20:42:49.334Z,5.10
2018-12-10T20:45:23.696Z,5.10
2018-12-10T20:47:57.989Z,5.00
2018-12-10T20:50:32.413Z,5.10
2018-12-10T20:53:06.632Z,5.10
2018-12-10T20:55:40.784Z,5.00
2018-12-10T20:58:15.886Z,5.00
2018-12-10T21:00:50.328Z,5.00
2018-12-10T21:03:24.720Z,5.10
2018-12-10T21:07:02.864Z,5.10
2018-12-10T21:09:37.028Z,5.00
2018-12-10T21:12:11.534Z,5.00
2018-12-10T21:14:45.932Z,5.00
2018-12-10T21:17:20.239Z,5.00
2018-12-10T21:19:54.511Z,5.00
2018-12-10T21:22:28.823Z,5.10
2018-12-10T21:25:03.292Z,5.00
2018-12-10T21:27:37.549Z,5.10
2018-12-10T21:30:11.864Z,5.10
2018-12-10T21:32:46.198Z,5.10
2018-12-10T21:35:20.417Z,5.10
2018-12-10T21:37:54.591Z,5.10
2018-12-10T21:40:28.873Z,5.10
2018-12-10T21:43:03.368Z,5.10
2018-12-10T21:45:37.560Z,5.10
2018-12-10T21:48:12.109Z,5.10
2018-12-10T21:50:46.440Z,5.10
2018-12-10T21:53:20.841Z,5.10
2018-12-10T21:55:55.242Z,5.10
2018-12-10T21:58:30.176Z,5.00
2018-12-10T22:01:04.419Z,5.00
2018-12-10T22:03:38.915Z,5.10
2018-12-10T22:06:13.201Z,5.00
2018-12-10T22:08:47.520Z,5.00
2018-12-10T22:11:21.843Z,5.00
2018-12-10T22:13:56.128Z,5.00
2018-12-10T22:16:30.724Z,5.00
2018-12-10T22:19:05.020Z,5.10
2018-12-10T22:21:39.314Z,5.10
2018-12-10T22:24:13.599Z,5.10
2018-12-10T22:26:47.868Z,5.00
2018-12-10T22:29:22.183Z,5.10
2018-12-10T22:31:56.551Z,5.10
2018-12-10T22:34:30.924Z,5.10
2018-12-10T22:37:05.256Z,5.10
2018-12-10T22:39:39.544Z,5.10
2018-12-10T22:42:13.918Z,5.10
2018-12-10T22:44:48.156Z,5.10
2018-12-10T22:47:22.503Z,5.10
2018-12-10T22:49:56.884Z,5.10
2018-12-10T22:52:31.269Z,5.10
2018-12-10T22:55:05.616Z,5.10
2018-12-10T22:57:39.826Z,5.10
2018-12-10T23:00:14.577Z,5.10
2018-12-10T23:02:48.831Z,5.10
2018-12-10T23:05:23.202Z,5.10
2018-12-10T23:07:57.506Z,5.10
2018-12-10T23:10:31.892Z,5.10
2018-12-10T23:13:06.300Z,5.00
2018-12-10T23:15:40.574Z,5.00
2018-12-10T23:18:14.978Z,5.00
2018-12-10T23:20:49.349Z,5.00
2018-12-10T23:23:23.570Z,5.00
2018-12-10T23:25:57.773Z,5.00
2018-12-10T23:28:31.889Z,4.90
2018-12-10T23:31:06.212Z,4.90
2018-12-10T23:33:40.404Z,4.90
2018-12-10T23:36:14.773Z,4.90
2018-12-10T23:38:49.151Z,5.00
2018-12-10T23:41:23.555Z,5.00
2018-12-10T23:43:57.860Z,4.90
2018-12-10T23:46:32.090Z,5.00
2018-12-10T23:49:06.441Z,5.00
2018-12-10T23:51:40.714Z,4.90
2018-12-10T23:54:14.900Z,4.90
2018-12-10T23:56:49.220Z,4.90
2018-12-10T23:59:23.381Z,4.90
